Saguache, CO

2:08 AM MST on January 22, 2017 (GMT -0700)
Saguache

Weather History for K04V - July, 2014

Change the Weather History Date:

Tuesday, July 22, 2014

  Actual Average (KALS) Record (KALS)
Temperature  
Mean Temperature 68 °F -  
Max Temperature 87 °F 81 °F 90 °F (1988)
Min Temperature 50 °F 47 °F 35 °F (1961)
Cooling Degree Days 4    
Growing Degree Days 18 (Base 50)    
Moisture  
Dew Point 38 °F    
Average Humidity 36    
Maximum Humidity 76    
Minimum Humidity 12    
Precipitation  
Precipitation 0.00 in - - ()
Sea Level Pressure  
Sea Level Pressure 30.49 in    
Wind  
Wind Speed 9 mph (SW)    
Max Wind Speed 17 mph    
Max Gust Speed 22 mph    
Visibility 10 miles    
Events      
Averages and records for this station are not official NWS values.
T = Trace of Precipitation, MM = Missing Value Source: NWS Daily Summary

Daily Weather History Graph

Daily Weather History Graph

Search for Another Location

Airport or City:

Trip Planner

Search our weather history database for the weather conditions in past years. The results will help you decide how hot, cold, wet, or windy it might be!

Date:

Astronomy

Jul. 22, 2014 Rise Set
Actual Time 5:59 AM MDT 8:22 PM MDT
Civil Twilight 5:29 AM MDT 8:52 PM MDT
Nautical Twilight 4:51 AM MDT 9:29 PM MDT
Astronomical Twilight 4:10 AM MDT 10:10 PM MDT
Moon 2:33 AM MDT 5:03 PM MDT
Length of Visible Light 15h 23m
Length of Day
14h 23m
Waning Crescent, 16% of the Moon is Illuminated
Jul 22
Waning Crescent
Jul 26
New
Aug 3
First Quarter
Aug 10
Full
Aug 17
Last Quarter

Hourly Weather History & Observations

Time (MDT) Temp. Dew Point Humidity Pressure Visibility Wind Dir Wind Speed Gust Speed Precip Events Conditions
12:15 AM 51.8 °F 44.6 °F 76% 30.47 in 10.0 mi North 4.6 mph - N/A   Clear
12:34 AM 53.6 °F 44.6 °F 72% 30.48 in 10.0 mi NNW 5.8 mph - N/A   Clear
12:55 AM 53.6 °F 42.8 °F 67% 30.48 in 10.0 mi NW 9.2 mph - N/A   Clear
1:15 AM 51.8 °F 42.8 °F 71% 30.47 in 10.0 mi NNW 8.1 mph - N/A   Clear
1:35 AM 53.6 °F 41.0 °F 62% 30.47 in 10.0 mi NNW 11.5 mph - N/A   Clear
1:55 AM 55.4 °F 41.0 °F 58% 30.47 in 10.0 mi NNW 13.8 mph - N/A   Clear
2:12 AM 55.4 °F 39.2 °F 54% 30.47 in 10.0 mi North 13.8 mph - N/A   Clear
2:35 AM 53.6 °F 39.2 °F 58% 30.47 in 10.0 mi NNW 9.2 mph - N/A   Clear
2:53 AM 53.6 °F 39.2 °F 58% 30.47 in 10.0 mi NNW 9.2 mph - N/A   Clear
3:15 AM 53.6 °F 39.2 °F 58% 30.46 in 10.0 mi NNW 10.4 mph - N/A   Clear
3:34 AM 51.8 °F 39.2 °F 62% 30.46 in 10.0 mi NNW 11.5 mph - N/A   Clear
3:55 AM 51.8 °F 37.4 °F 58% 30.46 in 10.0 mi NNW 10.4 mph - N/A   Clear
4:10 AM 53.6 °F 37.4 °F 54% 30.46 in 10.0 mi NW 11.5 mph - N/A   Clear
4:35 AM 51.8 °F 37.4 °F 58% 30.47 in 10.0 mi North 10.4 mph - N/A   Clear
4:49 AM 51.8 °F 37.4 °F 58% 30.47 in 10.0 mi NNW 11.5 mph - N/A   Clear
5:13 AM 51.8 °F 37.4 °F 58% 30.48 in 10.0 mi NNW 11.5 mph - N/A   Clear
5:33 AM 51.8 °F 37.4 °F 58% 30.49 in 10.0 mi NNW 8.1 mph - N/A   Clear
5:55 AM 50.0 °F 37.4 °F 62% 30.50 in 10.0 mi NNW 9.2 mph - N/A   Clear
6:10 AM 50.0 °F 37.4 °F 62% 30.49 in 10.0 mi NNW 10.4 mph - N/A   Clear
6:33 AM 51.8 °F 37.4 °F 58% 30.50 in 10.0 mi NNW 12.7 mph - N/A   Clear
6:46 AM 53.6 °F 35.6 °F 51% 30.50 in 10.0 mi NNW 12.7 mph - N/A   Clear
7:12 AM 55.4 °F 37.4 °F 51% 30.50 in 10.0 mi NW 15.0 mph 18.4 mph N/A   Clear
7:35 AM 59.0 °F 37.4 °F 45% 30.51 in 10.0 mi NW 12.7 mph 18.4 mph N/A   Clear
7:54 AM 60.8 °F 37.4 °F 42% 30.52 in 10.0 mi WNW 6.9 mph - N/A   Clear
8:13 AM 62.6 °F 39.2 °F 42% 30.52 in 10.0 mi NW 10.4 mph - N/A   Clear
8:31 AM 64.4 °F 39.2 °F 40% 30.52 in 10.0 mi WNW 9.2 mph - N/A   Clear
8:51 AM 64.4 °F 41.0 °F 42% 30.53 in 10.0 mi WSW 6.9 mph - N/A   Clear
9:12 AM 68.0 °F 41.0 °F 37% 30.53 in 10.0 mi West 6.9 mph - N/A   Clear
9:24 AM 69.8 °F 41.0 °F 35% 30.53 in 10.0 mi West 5.8 mph - N/A   Clear
9:54 AM 69.8 °F 44.6 °F 40% 30.53 in 10.0 mi SSE 4.6 mph - N/A   Clear
10:15 AM 71.6 °F 42.8 °F 35% 30.52 in 10.0 mi Calm Calm - N/A   Clear
10:29 AM 73.4 °F 37.4 °F 27% 30.52 in 10.0 mi South 3.5 mph - N/A   Clear
11:15 AM 77.0 °F 37.4 °F 24% 30.52 in 10.0 mi Calm Calm - N/A   Clear
11:35 AM 78.8 °F 39.2 °F 24% 30.52 in 10.0 mi South 5.8 mph - N/A   Clear
11:54 AM 80.6 °F 30.2 °F 16% 30.51 in 10.0 mi SW 4.6 mph - N/A   Clear
12:13 PM 80.6 °F 32.0 °F 17% 30.50 in 10.0 mi SSW 4.6 mph - N/A   Clear
12:33 PM 82.4 °F 33.8 °F 17% 30.50 in 10.0 mi SSE 8.1 mph - N/A   Clear
12:51 PM 82.4 °F 33.8 °F 17% 30.50 in 10.0 mi South 8.1 mph - N/A   Clear
1:15 PM 84.2 °F 33.8 °F 16% 30.50 in 10.0 mi South 9.2 mph - N/A   Clear
1:31 PM 84.2 °F 33.8 °F 16% 30.50 in 10.0 mi South 11.5 mph 18.4 mph N/A   Clear
1:54 PM 86.0 °F 32.0 °F 14% 30.49 in 10.0 mi South 10.4 mph 19.6 mph N/A   Clear
2:15 PM 86.0 °F 32.0 °F 14% 30.48 in 10.0 mi SSE 9.2 mph - N/A   Clear
2:32 PM 86.0 °F 28.4 °F 12% 30.48 in 10.0 mi South 8.1 mph - N/A   Clear
2:50 PM 86.0 °F 30.2 °F 13% 30.48 in 10.0 mi South 5.8 mph 16.1 mph N/A   Clear
3:07 PM 86.0 °F 30.2 °F 13% 30.47 in 10.0 mi South 11.5 mph - N/A   Clear
3:35 PM 87.8 °F 32.0 °F 14% 30.46 in 10.0 mi South 9.2 mph - N/A   Clear
3:55 PM 87.8 °F 32.0 °F 14% 30.46 in 10.0 mi South 8.1 mph - N/A   Clear
4:10 PM 86.0 °F 32.0 °F 14% 30.45 in 10.0 mi South 12.7 mph 18.4 mph N/A   Clear
4:34 PM 86.0 °F 30.2 °F 13% 30.45 in 7.0 mi WSW 3.5 mph - N/A   Clear
4:55 PM 86.0 °F 30.2 °F 13% 30.44 in 10.0 mi South 3.5 mph - N/A   Clear
5:15 PM 86.0 °F 30.2 °F 13% 30.44 in 10.0 mi South 6.9 mph - N/A   Clear
5:35 PM 86.0 °F 30.2 °F 13% 30.43 in 10.0 mi SE 4.6 mph 9.2 mph N/A   Clear
5:54 PM 86.0 °F 30.2 °F 13% 30.43 in 10.0 mi SSW 4.6 mph - N/A   Clear
6:13 PM 86.0 °F 32.0 °F 14% 30.43 in 10.0 mi South 5.8 mph - N/A   Clear
6:32 PM 86.0 °F 33.8 °F 15% 30.44 in 10.0 mi SSE 17.3 mph 21.9 mph N/A   Clear
6:53 PM 82.4 °F 37.4 °F 20% 30.44 in 10.0 mi SSE 15.0 mph 18.4 mph N/A   Clear
7:15 PM 82.4 °F 37.4 °F 20% 30.45 in 10.0 mi SE 15.0 mph - N/A   Clear
7:34 PM 78.8 °F 41.0 °F 26% 30.46 in 10.0 mi SE 11.5 mph - N/A   Clear
8:12 PM 73.4 °F 46.4 °F 38% 30.47 in 10.0 mi SSE 6.9 mph - N/A   Clear
8:33 PM 71.6 °F 42.8 °F 35% 30.48 in 10.0 mi SSE 4.6 mph - N/A   Clear
8:51 PM 69.8 °F 44.6 °F 40% 30.48 in 10.0 mi SE 5.8 mph - N/A   Clear
9:15 PM 71.6 °F 42.8 °F 35% 30.50 in 10.0 mi SSE 4.6 mph - N/A   Clear
9:32 PM 69.8 °F 42.8 °F 38% 30.52 in 10.0 mi SSE 5.8 mph - N/A   Clear
9:47 PM 71.6 °F 41.0 °F 33% 30.52 in 10.0 mi SW 16.1 mph 20.7 mph N/A   Clear
10:13 PM 73.4 °F 41.0 °F 31% 30.53 in 10.0 mi South 12.7 mph - N/A   Scattered Clouds
10:35 PM 71.6 °F 39.2 °F 31% 30.54 in 10.0 mi South 11.5 mph - N/A   Mostly Cloudy
10:55 PM 69.8 °F 41.0 °F 35% 30.55 in 10.0 mi SSE 6.9 mph - N/A   Mostly Cloudy
11:09 PM 69.8 °F 41.0 °F 35% 30.55 in 10.0 mi SE 5.8 mph - N/A   Mostly Cloudy
11:35 PM 68.0 °F 42.8 °F 40% 30.56 in 10.0 mi East 6.9 mph - N/A   Mostly Cloudy
11:53 PM 68.0 °F 42.8 °F 40% 30.57 in 10.0 mi East 5.8 mph - N/A   Overcast